Time,TemperatureF,DewpointF,PressureIn,WindDirection,WindDirectionDegrees,WindSpeedMPH,WindSpeedGustMPH,Humidity,HourlyPrecipIn,Conditions,Clouds,dailyrainin,SoftwareType,DateUTC
2015-09-03 00:00:00,68.9,65.5,29.99,WSW,257,0.0,0.0,89,0.00,,,0.00,meteobridge,2015-09-03 04:00:00,
2015-09-03 00:06:00,68.7,65.3,29.99,WSW,257,0.0,0.0,89,0.00,,,0.00,meteobridge,2015-09-03 04:06:00,
2015-09-03 00:11:00,68.5,65.1,29.99,WSW,257,0.0,0.0,89,0.00,,,0.00,meteobridge,2015-09-03 04:11:00,
2015-09-03 00:16:00,68.5,65.1,29.99,WSW,257,0.0,0.0,89,0.00,,,0.00,meteobridge,2015-09-03 04:16:00,
2015-09-03 00:21:00,68.5,65.1,29.99,WSW,257,0.0,0.0,89,0.00,,,0.00,meteobridge,2015-09-03 04:21:00,
2015-09-03 00:26:00,68.5,65.5,29.99,WSW,257,0.0,0.0,90,0.00,,,0.00,meteobridge,2015-09-03 04:26:00,
2015-09-03 00:31:00,68.5,65.5,29.98,WSW,257,0.0,0.0,90,0.00,,,0.00,meteobridge,2015-09-03 04:31:00,
2015-09-03 00:36:00,68.5,65.5,29.99,WSW,257,0.0,0.0,90,0.00,,,0.00,meteobridge,2015-09-03 04:36:00,
2015-09-03 00:42:00,68.5,65.5,29.99,WSW,257,0.0,0.0,90,0.00,,,0.00,meteobridge,2015-09-03 04:42:00,
2015-09-03 00:47:00,68.5,65.5,29.99,WSW,257,0.0,0.0,90,0.00,,,0.00,meteobridge,2015-09-03 04:47:00,
2015-09-03 00:52:00,68.5,65.5,29.99,WSW,257,0.0,0.0,90,0.00,,,0.00,meteobridge,2015-09-03 04:52:00,
2015-09-03 00:57:00,68.4,65.3,29.99,WSW,257,0.0,0.0,90,0.00,,,0.00,meteobridge,2015-09-03 04:57:00,
2015-09-03 01:02:00,68.4,65.3,29.98,WSW,257,0.0,0.0,90,0.00,,,0.00,meteobridge,2015-09-03 05:02:00,
2015-09-03 01:07:00,68.4,65.3,29.98,WSW,257,0.0,0.0,90,0.00,,,0.00,meteobridge,2015-09-03 05:07:00,
2015-09-03 01:12:00,68.2,65.1,29.98,WSW,257,0.0,0.0,90,0.00,,,0.00,meteobridge,2015-09-03 05:12:00,
2015-09-03 01:17:00,68.2,65.1,29.98,WSW,257,0.0,0.0,90,0.00,,,0.00,meteobridge,2015-09-03 05:17:00,
2015-09-03 01:22:00,68.0,64.6,29.98,WSW,257,0.0,0.0,89,0.00,,,0.00,meteobridge,2015-09-03 05:22:00,
2015-09-03 01:27:00,67.6,64.2,29.98,WSW,257,0.0,0.0,89,0.00,,,0.00,meteobridge,2015-09-03 05:27:00,
2015-09-03 01:32:00,67.6,64.6,29.98,WSW,257,0.0,1.0,90,0.00,,,0.00,meteobridge,2015-09-03 05:32:00,
2015-09-03 01:38:00,67.6,64.6,29.98,WSW,257,0.0,0.0,90,0.00,,,0.00,meteobridge,2015-09-03 05:38:00,
2015-09-03 01:43:00,67.6,64.6,29.98,WSW,257,0.0,0.0,90,0.00,,,0.00,meteobridge,2015-09-03 05:43:00,
2015-09-03 01:48:00,67.6,64.6,29.97,WSW,257,0.0,0.0,90,0.00,,,0.00,meteobridge,2015-09-03 05:48:00,
2015-09-03 01:53:00,67.6,64.6,29.97,WSW,257,0.0,0.0,90,0.00,,,0.00,meteobridge,2015-09-03 05:53:00,
2015-09-03 01:58:00,67.6,64.6,29.97,WSW,257,0.0,0.0,90,0.00,,,0.00,meteobridge,2015-09-03 05:58:00,
2015-09-03 02:03:00,67.5,64.4,29.97,WSW,257,0.0,0.0,90,0.00,,,0.00,meteobridge,2015-09-03 06:03:00,
2015-09-03 02:08:00,67.5,64.4,29.97,WSW,257,0.0,0.0,90,0.00,,,0.00,meteobridge,2015-09-03 06:08:00,
2015-09-03 02:13:00,67.3,64.2,29.96,WSW,257,0.0,0.0,90,0.00,,,0.00,meteobridge,2015-09-03 06:13:00,
2015-09-03 02:18:00,67.1,64.0,29.96,WSW,257,0.0,0.0,90,0.00,,,0.00,meteobridge,2015-09-03 06:18:00,
2015-09-03 02:23:00,67.1,64.0,29.97,WSW,257,0.0,0.0,90,0.00,,,0.00,meteobridge,2015-09-03 06:23:00,
2015-09-03 02:28:00,67.1,64.0,29.96,WSW,257,0.0,1.0,90,0.00,,,0.00,meteobridge,2015-09-03 06:28:00,
2015-09-03 02:33:00,67.1,64.0,29.96,WSW,257,0.0,0.0,90,0.00,,,0.00,meteobridge,2015-09-03 06:33:00,
2015-09-03 02:38:00,66.9,63.9,29.96,WSW,257,0.0,0.0,90,0.00,,,0.00,meteobridge,2015-09-03 06:38:00,
2015-09-03 02:43:00,66.9,63.9,29.96,WSW,257,0.0,0.0,90,0.00,,,0.00,meteobridge,2015-09-03 06:43:00,
2015-09-03 02:48:00,66.9,63.9,29.96,WSW,257,0.0,0.0,90,0.00,,,0.00,meteobridge,2015-09-03 06:48:00,
2015-09-03 02:53:00,66.9,63.9,29.96,WSW,257,0.0,0.0,90,0.00,,,0.00,meteobridge,2015-09-03 06:53:00,
2015-09-03 02:58:00,66.7,63.7,29.95,WSW,257,0.0,0.0,90,0.00,,,0.00,meteobridge,2015-09-03 06:58:00,
2015-09-03 03:04:00,66.7,63.7,29.95,WSW,257,0.0,0.0,90,0.00,,,0.00,meteobridge,2015-09-03 07:04:00,
2015-09-03 03:09:00,66.6,63.5,29.95,WSW,257,0.0,0.0,90,0.00,,,0.00,meteobridge,2015-09-03 07:09:00,
2015-09-03 03:14:00,66.6,63.5,29.95,WSW,257,0.0,0.0,90,0.00,,,0.00,meteobridge,2015-09-03 07:14:00,
2015-09-03 03:19:00,66.6,63.9,29.94,WSW,257,0.0,0.0,91,0.00,,,0.00,meteobridge,2015-09-03 07:19:00,
2015-09-03 03:24:00,66.6,63.9,29.95,WSW,257,0.0,0.0,91,0.00,,,0.00,meteobridge,2015-09-03 07:24:00,
2015-09-03 03:29:00,66.6,63.9,29.94,WSW,257,0.0,0.0,91,0.00,,,0.00,meteobridge,2015-09-03 07:29:00,
2015-09-03 03:34:00,66.6,63.9,29.94,WSW,257,0.0,0.0,91,0.00,,,0.00,meteobridge,2015-09-03 07:34:00,
2015-09-03 03:40:00,66.6,63.9,29.95,WSW,257,0.0,0.0,91,0.00,,,0.00,meteobridge,2015-09-03 07:40:00,
2015-09-03 03:45:00,66.6,63.9,29.95,WSW,257,0.0,0.0,91,0.00,,,0.00,meteobridge,2015-09-03 07:45:00,
2015-09-03 03:50:00,66.6,63.9,29.95,WSW,257,0.0,0.0,91,0.00,,,0.00,meteobridge,2015-09-03 07:50:00,
2015-09-03 03:55:00,66.4,63.3,29.95,WSW,257,0.0,0.0,90,0.00,,,0.00,meteobridge,2015-09-03 07:55:00,
2015-09-03 04:00:00,66.4,63.3,29.95,WSW,257,0.0,0.0,90,0.00,,,0.00,meteobridge,2015-09-03 08:00:00,
2015-09-03 04:05:00,66.2,63.1,29.96,WSW,257,0.0,0.0,90,0.00,,,0.00,meteobridge,2015-09-03 08:05:00,
2015-09-03 04:10:00,66.0,63.0,29.96,WSW,257,0.0,0.0,90,0.00,,,0.00,meteobridge,2015-09-03 08:10:00,
2015-09-03 04:15:00,65.8,62.8,29.96,WSW,257,0.0,0.0,90,0.00,,,0.00,meteobridge,2015-09-03 08:15:00,
2015-09-03 04:20:00,65.8,62.8,29.96,WSW,257,0.0,0.0,90,0.00,,,0.00,meteobridge,2015-09-03 08:20:00,
2015-09-03 04:25:00,65.8,62.8,29.96,WSW,257,0.0,0.0,90,0.00,,,0.00,meteobridge,2015-09-03 08:25:00,
2015-09-03 04:30:00,65.7,62.6,29.96,WSW,257,0.0,0.0,90,0.00,,,0.00,meteobridge,2015-09-03 08:30:00,
2015-09-03 04:35:00,65.7,62.6,29.96,WSW,257,0.0,0.0,90,0.00,,,0.00,meteobridge,2015-09-03 08:35:00,
2015-09-03 04:40:00,65.7,63.0,29.96,WSW,257,0.0,0.0,91,0.00,,,0.00,meteobridge,2015-09-03 08:40:00,
2015-09-03 04:45:00,65.8,63.1,29.96,WSW,257,0.0,0.0,91,0.00,,,0.00,meteobridge,2015-09-03 08:45:00,
2015-09-03 04:50:00,65.8,62.8,29.96,WSW,257,0.0,0.0,90,0.00,,,0.00,meteobridge,2015-09-03 08:50:00,
2015-09-03 04:56:00,65.8,63.1,29.96,WSW,257,0.0,0.0,91,0.00,,,0.00,meteobridge,2015-09-03 08:56:00,
2015-09-03 05:01:00,65.8,63.1,29.96,WSW,257,0.0,0.0,91,0.00,,,0.00,meteobridge,2015-09-03 09:01:00,
2015-09-03 05:06:00,65.8,63.1,29.95,WSW,257,0.0,0.0,91,0.00,,,0.00,meteobridge,2015-09-03 09:06:00,
2015-09-03 05:11:00,65.7,62.6,29.96,WSW,257,0.0,0.0,90,0.00,,,0.00,meteobridge,2015-09-03 09:11:00,
2015-09-03 05:16:00,65.5,62.4,29.96,WSW,257,0.0,0.0,90,0.00,,,0.00,meteobridge,2015-09-03 09:16:00,
2015-09-03 05:21:00,65.7,63.0,29.96,WSW,257,0.0,0.0,91,0.00,,,0.00,meteobridge,2015-09-03 09:21:00,
2015-09-03 05:26:00,65.7,63.0,29.96,WSW,257,0.0,0.0,91,0.00,,,0.00,meteobridge,2015-09-03 09:26:00,
2015-09-03 05:31:00,65.5,62.8,29.96,WSW,257,0.0,0.0,91,0.00,,,0.00,meteobridge,2015-09-03 09:31:00,
2015-09-03 05:36:00,65.5,62.8,29.96,WSW,257,0.0,0.0,91,0.00,,,0.00,meteobridge,2015-09-03 09:36:00,
2015-09-03 05:42:00,65.3,62.2,29.96,WSW,257,0.0,0.0,90,0.00,,,0.00,meteobridge,2015-09-03 09:42:00,
2015-09-03 05:47:00,65.1,62.1,29.96,WSW,257,0.0,0.0,90,0.00,,,0.00,meteobridge,2015-09-03 09:47:00,
2015-09-03 05:52:00,64.9,61.9,29.96,WSW,257,0.0,0.0,90,0.00,,,0.00,meteobridge,2015-09-03 09:52:00,
2015-09-03 05:57:00,64.9,61.9,29.96,WSW,257,0.0,0.0,90,0.00,,,0.00,meteobridge,2015-09-03 09:57:00,
2015-09-03 06:02:00,64.9,61.9,29.96,WSW,257,0.0,0.0,90,0.00,,,0.00,meteobridge,2015-09-03 10:02:00,
2015-09-03 06:07:00,64.9,62.2,29.96,WSW,257,0.0,0.0,91,0.00,,,0.00,meteobridge,2015-09-03 10:07:00,
2015-09-03 06:12:00,64.8,61.7,29.96,WSW,257,0.0,0.0,90,0.00,,,0.00,meteobridge,2015-09-03 10:12:00,
2015-09-03 06:17:00,64.6,61.5,29.96,WSW,257,0.0,0.0,90,0.00,,,0.00,meteobridge,2015-09-03 10:17:00,
2015-09-03 06:22:00,64.6,61.9,29.96,WSW,257,0.0,0.0,91,0.00,,,0.00,meteobridge,2015-09-03 10:22:00,
2015-09-03 06:27:00,64.6,61.9,29.96,WSW,257,0.0,0.0,91,0.00,,,0.00,meteobridge,2015-09-03 10:27:00,
2015-09-03 06:32:00,64.6,61.9,29.96,WSW,257,0.0,0.0,91,0.00,,,0.00,meteobridge,2015-09-03 10:32:00,
2015-09-03 06:37:00,64.8,62.1,29.96,WSW,257,0.0,0.0,91,0.00,,,0.00,meteobridge,2015-09-03 10:37:00,
2015-09-03 06:48:00,64.8,62.1,29.97,WSW,257,0.0,0.0,91,0.00,,,0.00,meteobridge,2015-09-03 10:48:00,
2015-09-03 06:53:00,64.8,62.1,29.97,WSW,257,0.0,0.0,91,0.00,,,0.00,meteobridge,2015-09-03 10:53:00,
2015-09-03 06:58:00,64.8,62.1,29.97,WSW,257,0.0,0.0,91,0.00,,,0.00,meteobridge,2015-09-03 10:58:00,
2015-09-03 07:03:00,64.6,61.5,29.97,WSW,257,0.0,0.0,90,0.00,,,0.00,meteobridge,2015-09-03 11:03:00,
2015-09-03 07:08:00,64.2,61.2,29.97,WSW,257,0.0,0.0,90,0.00,,,0.00,meteobridge,2015-09-03 11:08:00,
2015-09-03 07:13:00,64.0,61.0,29.97,WSW,257,0.0,0.0,90,0.00,,,0.00,meteobridge,2015-09-03 11:13:00,
2015-09-03 07:18:00,64.0,61.0,29.98,WSW,257,0.0,0.0,90,0.00,,,0.00,meteobridge,2015-09-03 11:18:00,
2015-09-03 07:24:00,63.9,61.2,29.98,WSW,257,0.0,0.0,91,0.00,,,0.00,meteobridge,2015-09-03 11:24:00,
2015-09-03 07:29:00,63.9,61.2,29.98,WSW,257,0.0,0.0,91,0.00,,,0.00,meteobridge,2015-09-03 11:29:00,
2015-09-03 07:34:00,63.9,61.2,29.98,WSW,257,0.0,0.0,91,0.00,,,0.00,meteobridge,2015-09-03 11:34:00,
2015-09-03 07:39:00,64.0,61.3,29.98,WSW,257,0.0,0.0,91,0.00,,,0.00,meteobridge,2015-09-03 11:39:00,
2015-09-03 07:44:00,64.0,61.3,29.98,WSW,257,0.0,0.0,91,0.00,,,0.00,meteobridge,2015-09-03 11:44:00,
2015-09-03 07:49:00,64.2,61.5,29.98,WSW,257,0.0,0.0,91,0.00,,,0.00,meteobridge,2015-09-03 11:49:00,
2015-09-03 07:54:00,64.2,61.5,29.98,WSW,257,0.0,0.0,91,0.00,,,0.00,meteobridge,2015-09-03 11:54:00,
2015-09-03 07:59:00,64.6,61.9,29.98,WSW,257,0.0,0.0,91,0.00,,,0.00,meteobridge,2015-09-03 11:59:00,
2015-09-03 08:04:00,64.6,61.9,29.98,WSW,257,0.0,0.0,91,0.00,,,0.00,meteobridge,2015-09-03 12:04:00,
2015-09-03 08:09:00,64.6,61.9,29.98,WSW,257,0.0,0.0,91,0.00,,,0.00,meteobridge,2015-09-03 12:09:00,
2015-09-03 08:14:00,64.8,62.1,29.98,WSW,257,0.0,0.0,91,0.00,,,0.00,meteobridge,2015-09-03 12:14:00,
2015-09-03 08:19:00,64.8,62.1,29.98,WSW,257,0.0,0.0,91,0.00,,,0.00,meteobridge,2015-09-03 12:19:00,